Kriti II — SZQW — position and weather

sailwx.info

Track history (hours):
 
Tides and Currents Weather Stations Pressure Air Temp Water Temp Dewpoint Dewpoint Depression Visibility Wind Speed Wind Dir Waves Ship Positions

Kriti II

Last reported at 2018-Aug-21 03:31 UTC. Time now 2018-Aug-21 03:56 UTC.
Position N 37°57' E 023°38'.

Length 192 m; draft 7 m.

Type: Passenger vessel. MMSI: 237032000.

Date/timePositionNaut miles runAvg speedWind from/ knotsBaromVisibWave heightAir tempDewpointWater temp
2018-Aug-21 03:31N 37°57' E 023°38'0 0.9
2018-Aug-21 03:04N 37°56' E 023°38'0 8.7
2018-Aug-21 03:01N 37°56' E 023°37'816.0
2018-Aug-21 02:30N 37°49' E 023°41'920.0
2018-Aug-21 02:03N 37°41' E 023°45'119.8
2018-Aug-21 02:00N 37°40' E 023°46'8 0.3
2018-Aug-19 19:35N 37°31' E 023°47'220.1
2018-Aug-19 19:30N 37°33' E 023°46'1020.1
2018-Aug-19 19:00N 37°42' E 023°41'1019.8
2018-Aug-19 18:31N 37°52' E 023°37'510.2
2018-Aug-19 17:59N 37°57' E 023°38'0 0.0
2018-Aug-19 17:29N 37°57' E 023°38'0 0.0
2018-Aug-19 17:01N 37°57' E 023°38'0 0.0
2018-Aug-19 16:30N 37°57' E 023°38'2 3.1
2018-Aug-19 16:00N 37°56' E 023°37'815.7
2018-Aug-19 15:31N 37°49' E 023°41'1019.3
2018-Aug-19 15:01N 37°40' E 023°46'1020.1
2018-Aug-19 14:30N 37°31' E 023°50'3 0.2
2018-Aug-18 19:29N 37°33' E 023°47'1020.1
2018-Aug-18 19:00N 37°41' E 023°42'1020.3
2018-Aug-18 18:30N 37°50' E 023°37'612.8
2018-Aug-18 18:00N 37°57' E 023°38'0 0.0
2018-Aug-18 17:30N 37°57' E 023°38'0 0.0
2018-Aug-18 17:00N 37°57' E 023°38'0 0.0
2018-Aug-18 16:30N 37°57' E 023°38'0 0.0
2018-Aug-18 16:00N 37°57' E 023°38'0 0.0
2018-Aug-18 15:30N 37°57' E 023°38'0 0.0
2018-Aug-18 15:00N 37°57' E 023°38'0 0.0
2018-Aug-18 14:30N 37°57' E 023°38'0 0.0
2018-Aug-18 14:00N 37°57' E 023°38'0 0.0
2018-Aug-18 13:30N 37°57' E 023°38'0 0.0
2018-Aug-18 13:00N 37°57' E 023°38'0 0.0
2018-Aug-18 12:30N 37°57' E 023°38'0 0.0
2018-Aug-18 12:00N 37°57' E 023°38'0 0.0
2018-Aug-18 11:30N 37°57' E 023°38'0 0.0
2018-Aug-18 11:00N 37°57' E 023°38'0 0.0
2018-Aug-18 10:30N 37°57' E 023°38'0 0.0
2018-Aug-18 10:00N 37°57' E 023°38'0 0.0
2018-Aug-18 09:30N 37°57' E 023°38'0 0.0
2018-Aug-18 09:00N 37°57' E 023°38'0 0.0
2018-Aug-18 08:30N 37°57' E 023°38'0 0.0
2018-Aug-18 08:00N 37°57' E 023°38'0 0.0
2018-Aug-18 07:30N 37°57' E 023°38'0 0.0
2018-Aug-18 07:00N 37°57' E 023°38'0 0.0
2018-Aug-18 06:30N 37°57' E 023°38'0 0.0
2018-Aug-18 06:00N 37°57' E 023°38'0 0.0
2018-Aug-18 05:30N 37°57' E 023°38'0 0.0
2018-Aug-18 04:59N 37°57' E 023°38'0 0.0
2018-Aug-18 04:30N 37°57' E 023°38'0 0.0
2018-Aug-18 04:00N 37°57' E 023°38'0 0.0
2018-Aug-18 03:30N 37°57' E 023°38'1 1.5
2018-Aug-18 03:00N 37°56' E 023°37'611.7
2018-Aug-18 02:30N 37°51' E 023°40'1019.3
2018-Aug-18 02:01N 37°42' E 023°44'1019.8
2018-Aug-18 01:31N 37°33' E 023°49'2420.1
2018-Aug-18 00:19N 37°10' E 023°59'621.2
2018-Aug-18 00:01N 37°04' E 024°02'1020.6
2018-Aug-17 23:30N 36°54' E 024°06'24 0.9
2018-Aug-16 20:37N 37°16' E 023°54'220.1
2018-Aug-16 20:30N 37°18' E 023°53'1019.8
2018-Aug-16 19:59N 37°27' E 023°49'1019.9
2018-Aug-16 19:31N 37°36' E 023°44'1019.8
2018-Aug-16 19:01N 37°45' E 023°39'1019.3
2018-Aug-16 18:30N 37°55' E 023°37'2 4.2
2018-Aug-16 17:59N 37°57' E 023°38'0 0.0
2018-Aug-16 17:30N 37°57' E 023°38'0 0.0
2018-Aug-16 17:00N 37°57' E 023°38'0 0.0
2018-Aug-16 16:30N 37°57' E 023°38'0 0.5
2018-Aug-16 16:00N 37°57' E 023°38'3 7.0
2018-Aug-16 15:30N 37°53' E 023°38'1020.2
2018-Aug-16 15:00N 37°44' E 023°43'1020.5
2018-Aug-16 14:30N 37°34' E 023°48'1220.8
2018-Aug-16 13:56N 37°23' E 023°53'2020.5
2018-Aug-16 12:57N 37°04' E 024°01'920.9
2018-Aug-16 12:30N 36°55' E 024°05'12 0.8
2018-Aug-15 20:57N 37°06' E 023°59'2120.3
2018-Aug-15 19:55N 37°26' E 023°50'820.2
2018-Aug-15 19:31N 37°33' E 023°46'1020.1
2018-Aug-15 19:01N 37°43' E 023°41'1019.8
2018-Aug-15 18:31N 37°52' E 023°37'510.1
2018-Aug-15 18:00N 37°57' E 023°38'0 0.0
2018-Aug-15 17:30N 37°57' E 023°38'0 0.0
2018-Aug-15 17:00N 37°57' E 023°38'0 0.0
2018-Aug-15 16:30N 37°57' E 023°38'0 0.0
2018-Aug-15 16:00N 37°57' E 023°38'0 0.0
2018-Aug-15 15:30N 37°57' E 023°38'0 0.0
2018-Aug-15 15:00N 37°57' E 023°38'0 0.0
2018-Aug-15 14:30N 37°57' E 023°38'0 0.0
2018-Aug-15 14:00N 37°57' E 023°38'0 0.0
2018-Aug-15 13:30N 37°57' E 023°38'0 0.0
2018-Aug-15 12:59N 37°57' E 023°38'0 0.0
2018-Aug-15 12:30N 37°57' E 023°38'0 0.0
2018-Aug-15 12:00N 37°57' E 023°38'0 0.0
2018-Aug-15 11:30N 37°57' E 023°38'0 0.0
2018-Aug-15 11:00N 37°57' E 023°38'0 0.0
2018-Aug-15 10:30N 37°57' E 023°38'0 0.0
2018-Aug-15 10:00N 37°57' E 023°38'0 0.0
2018-Aug-15 09:29N 37°57' E 023°38'0 0.0
2018-Aug-15 09:00N 37°57' E 023°38'0 0.0
2018-Aug-15 08:30N 37°57' E 023°38'0 0.0
2018-Aug-15 08:00N 37°57' E 023°38'0 0.1
2018-Aug-15 03:00N 37°56' E 023°38'713.5
2018-Aug-15 02:30N 37°50' E 023°40'1120.0
2018-Aug-15 01:57N 37°40' E 023°46'8 0.3
2018-Aug-13 19:48N 37°32' E 023°46'519.2
2018-Aug-13 19:31N 37°37' E 023°44'1019.1
2018-Aug-13 19:00N 37°46' E 023°39'918.4
2018-Aug-13 18:30N 37°55' E 023°37'2 4.2
2018-Aug-13 18:00N 37°57' E 023°38'0 0.0
2018-Aug-13 17:31N 37°57' E 023°38'0 0.0
2018-Aug-13 17:01N 37°57' E 023°38'0 0.0
2018-Aug-13 16:31N 37°57' E 023°38'0 0.0
2018-Aug-13 16:00N 37°57' E 023°38'0 0.0
2018-Aug-13 15:31N 37°57' E 023°38'0 0.0
2018-Aug-13 14:59N 37°57' E 023°38'0 0.0
2018-Aug-13 14:29N 37°57' E 023°38'0 0.0
2018-Aug-13 14:01N 37°57' E 023°38'0 0.0
2018-Aug-13 13:31N 37°57' E 023°38'0 0.0
2018-Aug-13 13:01N 37°57' E 023°38'0 0.0
2018-Aug-13 12:31N 37°57' E 023°38'0 0.0
2018-Aug-13 12:01N 37°57' E 023°38'0 0.0
2018-Aug-13 11:30N 37°57' E 023°38'0 0.0
2018-Aug-13 11:01N 37°57' E 023°38'0 0.0
2018-Aug-13 10:30N 37°57' E 023°38'0 0.0
2018-Aug-13 10:01N 37°57' E 023°38'0 0.0
2018-Aug-13 09:30N 37°57' E 023°38'0 0.0
2018-Aug-13 09:01N 37°57' E 023°38'0 0.0
2018-Aug-13 08:30N 37°57' E 023°38'0 0.0
2018-Aug-13 08:01N 37°57' E 023°38'0 0.0
2018-Aug-13 07:30N 37°57' E 023°38'0 0.0
2018-Aug-13 07:01N 37°57' E 023°38'0 0.0
2018-Aug-13 06:30N 37°57' E 023°38'0 0.0
2018-Aug-13 06:01N 37°57' E 023°38'0 0.0
2018-Aug-13 05:31N 37°57' E 023°38'0 0.0
2018-Aug-13 05:01N 37°57' E 023°38'0 0.0
2018-Aug-13 04:30N 37°57' E 023°38'0 0.0
2018-Aug-13 04:01N 37°57' E 023°38'0 0.0
2018-Aug-13 03:30N 37°57' E 023°38'1 2.3
2018-Aug-13 03:00N 37°56' E 023°37'917.0
2018-Aug-13 02:31N 37°48' E 023°41'1019.6
2018-Aug-13 02:00N 37°40' E 023°47'1019.7
2018-Aug-13 01:29N 37°30' E 023°51'4 0.1
2018-Aug-11 20:32N 37°32' E 023°46'120.5
2018-Aug-11 20:28N 37°33' E 023°46'920.2
2018-Aug-11 20:00N 37°42' E 023°41'1019.6
2018-Aug-11 19:30N 37°51' E 023°37'611.3
2018-Aug-11 19:00N 37°57' E 023°38'0 0.0
2018-Aug-11 18:30N 37°57' E 023°38'0 0.0
2018-Aug-11 18:00N 37°57' E 023°38'0 0.0
2018-Aug-11 17:30N 37°57' E 023°38'0 0.0
2018-Aug-11 17:00N 37°57' E 023°38'0 0.0
2018-Aug-11 16:30N 37°57' E 023°38'2 3.5
2018-Aug-11 16:00N 37°56' E 023°36'918.1
2018-Aug-11 15:31N 37°48' E 023°41'1019.4
2018-Aug-11 15:01N 37°39' E 023°46'  
Track history (hours):
 
Tides and Currents Weather Stations Pressure Air Temp Water Temp Dewpoint Dewpoint Depression Visibility Wind Speed Wind Dir Waves Ship Positions

Kriti II

Last reported at 2018-Aug-21 03:31 UTC. Time now 2018-Aug-21 03:56 UTC.
Position N 37°57' E 023°38'.

Length 192 m; draft 7 m.

Type: Passenger vessel. MMSI: 237032000.

Date/timePositionNaut miles runAvg speedWind from/ knotsBaromVisibWave heightAir tempDewpointWater temp
2018-Aug-21 03:31N 37°57' E 023°38'0 0.9
2018-Aug-21 03:04N 37°56' E 023°38'0 8.7
2018-Aug-21 03:01N 37°56' E 023°37'816.0
2018-Aug-21 02:30N 37°49' E 023°41'920.0
2018-Aug-21 02:03N 37°41' E 023°45'119.8
2018-Aug-21 02:00N 37°40' E 023°46'8 0.3
2018-Aug-19 19:35N 37°31' E 023°47'220.1
2018-Aug-19 19:30N 37°33' E 023°46'1020.1
2018-Aug-19 19:00N 37°42' E 023°41'1019.8
2018-Aug-19 18:31N 37°52' E 023°37'510.2
2018-Aug-19 17:59N 37°57' E 023°38'0 0.0
2018-Aug-19 17:29N 37°57' E 023°38'0 0.0
2018-Aug-19 17:01N 37°57' E 023°38'0 0.0
2018-Aug-19 16:30N 37°57' E 023°38'2 3.1
2018-Aug-19 16:00N 37°56' E 023°37'815.7
2018-Aug-19 15:31N 37°49' E 023°41'1019.3
2018-Aug-19 15:01N 37°40' E 023°46'1020.1
2018-Aug-19 14:30N 37°31' E 023°50'3 0.2
2018-Aug-18 19:29N 37°33' E 023°47'1020.1
2018-Aug-18 19:00N 37°41' E 023°42'1020.3
2018-Aug-18 18:30N 37°50' E 023°37'612.8
2018-Aug-18 18:00N 37°57' E 023°38'0 0.0
2018-Aug-18 17:30N 37°57' E 023°38'0 0.0
2018-Aug-18 17:00N 37°57' E 023°38'0 0.0
2018-Aug-18 16:30N 37°57' E 023°38'0 0.0
2018-Aug-18 16:00N 37°57' E 023°38'0 0.0
2018-Aug-18 15:30N 37°57' E 023°38'0 0.0
2018-Aug-18 15:00N 37°57' E 023°38'0 0.0
2018-Aug-18 14:30N 37°57' E 023°38'0 0.0
2018-Aug-18 14:00N 37°57' E 023°38'0 0.0
2018-Aug-18 13:30N 37°57' E 023°38'0 0.0
2018-Aug-18 13:00N 37°57' E 023°38'0 0.0
2018-Aug-18 12:30N 37°57' E 023°38'0 0.0
2018-Aug-18 12:00N 37°57' E 023°38'0 0.0
2018-Aug-18 11:30N 37°57' E 023°38'0 0.0
2018-Aug-18 11:00N 37°57' E 023°38'0 0.0
2018-Aug-18 10:30N 37°57' E 023°38'0 0.0
2018-Aug-18 10:00N 37°57' E 023°38'0 0.0
2018-Aug-18 09:30N 37°57' E 023°38'0 0.0
2018-Aug-18 09:00N 37°57' E 023°38'0 0.0
2018-Aug-18 08:30N 37°57' E 023°38'0 0.0
2018-Aug-18 08:00N 37°57' E 023°38'0 0.0
2018-Aug-18 07:30N 37°57' E 023°38'0 0.0
2018-Aug-18 07:00N 37°57' E 023°38'0 0.0
2018-Aug-18 06:30N 37°57' E 023°38'0 0.0
2018-Aug-18 06:00N 37°57' E 023°38'0 0.0
2018-Aug-18 05:30N 37°57' E 023°38'0 0.0
2018-Aug-18 04:59N 37°57' E 023°38'0 0.0
2018-Aug-18 04:30N 37°57' E 023°38'0 0.0
2018-Aug-18 04:00N 37°57' E 023°38'0 0.0
2018-Aug-18 03:30N 37°57' E 023°38'1 1.5
2018-Aug-18 03:00N 37°56' E 023°37'611.7
2018-Aug-18 02:30N 37°51' E 023°40'1019.3
2018-Aug-18 02:01N 37°42' E 023°44'1019.8
2018-Aug-18 01:31N 37°33' E 023°49'2420.1
2018-Aug-18 00:19N 37°10' E 023°59'621.2
2018-Aug-18 00:01N 37°04' E 024°02'1020.6
2018-Aug-17 23:30N 36°54' E 024°06'24 0.9
2018-Aug-16 20:37N 37°16' E 023°54'220.1
2018-Aug-16 20:30N 37°18' E 023°53'1019.8
2018-Aug-16 19:59N 37°27' E 023°49'1019.9
2018-Aug-16 19:31N 37°36' E 023°44'1019.8
2018-Aug-16 19:01N 37°45' E 023°39'1019.3
2018-Aug-16 18:30N 37°55' E 023°37'2 4.2
2018-Aug-16 17:59N 37°57' E 023°38'0 0.0
2018-Aug-16 17:30N 37°57' E 023°38'0 0.0
2018-Aug-16 17:00N 37°57' E 023°38'0 0.0
2018-Aug-16 16:30N 37°57' E 023°38'0 0.5
2018-Aug-16 16:00N 37°57' E 023°38'3 7.0
2018-Aug-16 15:30N 37°53' E 023°38'1020.2
2018-Aug-16 15:00N 37°44' E 023°43'1020.5
2018-Aug-16 14:30N 37°34' E 023°48'1220.8
2018-Aug-16 13:56N 37°23' E 023°53'2020.5
2018-Aug-16 12:57N 37°04' E 024°01'920.9
2018-Aug-16 12:30N 36°55' E 024°05'12 0.8
2018-Aug-15 20:57N 37°06' E 023°59'2120.3
2018-Aug-15 19:55N 37°26' E 023°50'820.2
2018-Aug-15 19:31N 37°33' E 023°46'1020.1
2018-Aug-15 19:01N 37°43' E 023°41'1019.8
2018-Aug-15 18:31N 37°52' E 023°37'510.1
2018-Aug-15 18:00N 37°57' E 023°38'0 0.0
2018-Aug-15 17:30N 37°57' E 023°38'0 0.0
2018-Aug-15 17:00N 37°57' E 023°38'0 0.0
2018-Aug-15 16:30N 37°57' E 023°38'0 0.0
2018-Aug-15 16:00N 37°57' E 023°38'0 0.0
2018-Aug-15 15:30N 37°57' E 023°38'0 0.0
2018-Aug-15 15:00N 37°57' E 023°38'0 0.0
2018-Aug-15 14:30N 37°57' E 023°38'0 0.0
2018-Aug-15 14:00N 37°57' E 023°38'0 0.0
2018-Aug-15 13:30N 37°57' E 023°38'0 0.0
2018-Aug-15 12:59N 37°57' E 023°38'0 0.0
2018-Aug-15 12:30N 37°57' E 023°38'0 0.0
2018-Aug-15 12:00N 37°57' E 023°38'0 0.0
2018-Aug-15 11:30N 37°57' E 023°38'0 0.0
2018-Aug-15 11:00N 37°57' E 023°38'0 0.0
2018-Aug-15 10:30N 37°57' E 023°38'0 0.0
2018-Aug-15 10:00N 37°57' E 023°38'0 0.0
2018-Aug-15 09:29N 37°57' E 023°38'0 0.0
2018-Aug-15 09:00N 37°57' E 023°38'0 0.0
2018-Aug-15 08:30N 37°57' E 023°38'0 0.0
2018-Aug-15 08:00N 37°57' E 023°38'0 0.1
2018-Aug-15 03:00N 37°56' E 023°38'713.5
2018-Aug-15 02:30N 37°50' E 023°40'1120.0
2018-Aug-15 01:57N 37°40' E 023°46'8 0.3
2018-Aug-13 19:48N 37°32' E 023°46'519.2
2018-Aug-13 19:31N 37°37' E 023°44'1019.1
2018-Aug-13 19:00N 37°46' E 023°39'918.4
2018-Aug-13 18:30N 37°55' E 023°37'2 4.2
2018-Aug-13 18:00N 37°57' E 023°38'0 0.0
2018-Aug-13 17:31N 37°57' E 023°38'0 0.0
2018-Aug-13 17:01N 37°57' E 023°38'0 0.0
2018-Aug-13 16:31N 37°57' E 023°38'0 0.0
2018-Aug-13 16:00N 37°57' E 023°38'0 0.0
2018-Aug-13 15:31N 37°57' E 023°38'0 0.0
2018-Aug-13 14:59N 37°57' E 023°38'0 0.0
2018-Aug-13 14:29N 37°57' E 023°38'0 0.0
2018-Aug-13 14:01N 37°57' E 023°38'0 0.0
2018-Aug-13 13:31N 37°57' E 023°38'0 0.0
2018-Aug-13 13:01N 37°57' E 023°38'0 0.0
2018-Aug-13 12:31N 37°57' E 023°38'0 0.0
2018-Aug-13 12:01N 37°57' E 023°38'0 0.0
2018-Aug-13 11:30N 37°57' E 023°38'0 0.0
2018-Aug-13 11:01N 37°57' E 023°38'0 0.0
2018-Aug-13 10:30N 37°57' E 023°38'0 0.0
2018-Aug-13 10:01N 37°57' E 023°38'0 0.0
2018-Aug-13 09:30N 37°57' E 023°38'0 0.0
2018-Aug-13 09:01N 37°57' E 023°38'0 0.0
2018-Aug-13 08:30N 37°57' E 023°38'0 0.0
2018-Aug-13 08:01N 37°57' E 023°38'0 0.0
2018-Aug-13 07:30N 37°57' E 023°38'0 0.0
2018-Aug-13 07:01N 37°57' E 023°38'0 0.0
2018-Aug-13 06:30N 37°57' E 023°38'0 0.0
2018-Aug-13 06:01N 37°57' E 023°38'0 0.0
2018-Aug-13 05:31N 37°57' E 023°38'0 0.0
2018-Aug-13 05:01N 37°57' E 023°38'0 0.0
2018-Aug-13 04:30N 37°57' E 023°38'0 0.0
2018-Aug-13 04:01N 37°57' E 023°38'0 0.0
2018-Aug-13 03:30N 37°57' E 023°38'1 2.3
2018-Aug-13 03:00N 37°56' E 023°37'917.0
2018-Aug-13 02:31N 37°48' E 023°41'1019.6
2018-Aug-13 02:00N 37°40' E 023°47'1019.7
2018-Aug-13 01:29N 37°30' E 023°51'4 0.1
2018-Aug-11 20:32N 37°32' E 023°46'120.5
2018-Aug-11 20:28N 37°33' E 023°46'920.2
2018-Aug-11 20:00N 37°42' E 023°41'1019.6
2018-Aug-11 19:30N 37°51' E 023°37'611.3
2018-Aug-11 19:00N 37°57' E 023°38'0 0.0
2018-Aug-11 18:30N 37°57' E 023°38'0 0.0
2018-Aug-11 18:00N 37°57' E 023°38'0 0.0
2018-Aug-11 17:30N 37°57' E 023°38'0 0.0
2018-Aug-11 17:00N 37°57' E 023°38'0 0.0
2018-Aug-11 16:30N 37°57' E 023°38'2 3.5
2018-Aug-11 16:00N 37°56' E 023°36'918.1
2018-Aug-11 15:31N 37°48' E 023°41'1019.4
2018-Aug-11 15:01N 37°39' E 023°46'  

Dump ship's entire track history